Time;durP1;ratioP1;P1;durP2;ratioP2;P2;SDS_P1;SDS_P2;PMS_P1;PMS_P2;Temp;Humidity;BMP_temperature;BMP_pressure;BME280_temperature;BME280_humidity;BME280_pressure;Samples;Min_cycle;Max_cycle;Signal;HPM_P1;HPM_P2
2021/01/11 00:02:43;;;;;;;31.17;18.25;;;;;;;;;;6205448;28;20089;-69
2021/01/11 00:05:44;;;;;;;31.70;19.10;;;;;;;;;;6204720;28;20155;-68
2021/01/11 00:08:45;;;;;;;100.38;46.45;;;;;;;;;;6214114;28;20441;-67
2021/01/11 00:11:47;;;;;;;40.47;23.65;;;;;;;;;;6216864;28;20112;-67
2021/01/11 00:14:48;;;;;;;44.58;25.05;;;;;;;;;;6213016;28;20086;-67
2021/01/11 00:17:50;;;;;;;38.83;21.45;;;;;;;;;;6209693;28;20092;-68
2021/01/11 00:20:51;;;;;;;47.55;25.45;;;;;;;;;;6215492;28;20042;-68
2021/01/11 00:23:52;;;;;;;53.90;27.05;;;;;;;;;;6211019;28;20592;-67
2021/01/11 00:26:56;;;;;;;89.45;43.83;;;;;;;;;;6209633;28;20107;-70
2021/01/11 00:29:57;;;;;;;37.22;20.77;;;;;;;;;;6208844;28;20062;-69
2021/01/11 00:32:58;;;;;;;33.67;19.35;;;;;;;;;;6214774;28;20053;-68
2021/01/11 00:35:59;;;;;;;35.00;19.30;;;;;;;;;;6218045;28;20044;-69
2021/01/11 00:39:01;;;;;;;36.55;20.45;;;;;;;;;;6216668;28;20044;-68
2021/01/11 00:42:03;;;;;;;37.45;21.40;;;;;;;;;;6215869;28;20049;-69
2021/01/11 00:45:06;;;;;;;31.38;19.15;;;;;;;;;;6216643;28;20136;-69
2021/01/11 00:48:08;;;;;;;34.08;19.23;;;;;;;;;;6211312;28;20133;-69
2021/01/11 00:51:09;;;;;;;31.17;19.15;;;;;;;;;;6213888;28;20129;-69
2021/01/11 00:54:10;;;;;;;35.10;19.63;;;;;;;;;;6210044;28;20140;-71
2021/01/11 00:57:13;;;;;;;31.65;18.67;;;;;;;;;;6204739;28;20045;-68
2021/01/11 01:00:16;;;;;;;32.95;18.55;;;;;;;;;;6215962;28;20117;-68
2021/01/11 01:03:17;;;;;;;34.50;19.40;;;;;;;;;;6206688;28;21221;-67
2021/01/11 01:06:18;;;;;;;30.23;18.55;;;;;;;;;;6213648;28;20050;-68
2021/01/11 01:09:19;;;;;;;31.38;18.35;;;;;;;;;;6211336;28;20046;-67
2021/01/11 01:12:21;;;;;;;38.13;20.00;;;;;;;;;;6216420;28;20050;-69
2021/01/11 01:15:22;;;;;;;35.25;20.00;;;;;;;;;;6215064;28;20113;-68
2021/01/11 01:18:23;;;;;;;29.65;17.95;;;;;;;;;;6208984;28;20053;-68
2021/01/11 01:21:24;;;;;;;27.50;18.02;;;;;;;;;;6210323;28;20060;-68
2021/01/11 01:24:25;;;;;;;32.00;18.80;;;;;;;;;;6211151;28;20046;-70
2021/01/11 01:27:27;;;;;;;30.98;18.52;;;;;;;;;;6210842;28;20056;-69
2021/01/11 01:30:28;;;;;;;31.90;18.63;;;;;;;;;;6201957;28;20049;-67
2021/01/11 01:33:29;;;;;;;30.58;17.95;;;;;;;;;;6216191;28;20045;-68
2021/01/11 01:36:31;;;;;;;33.03;18.17;;;;;;;;;;6211506;28;20141;-69
2021/01/11 01:39:32;;;;;;;27.88;17.55;;;;;;;;;;6218412;28;20068;-66
2021/01/11 01:42:33;;;;;;;28.88;17.50;;;;;;;;;;6213878;28;20129;-67
2021/01/11 01:45:34;;;;;;;28.02;17.05;;;;;;;;;;6217043;28;20037;-69
2021/01/11 01:48:36;;;;;;;26.77;17.00;;;;;;;;;;6217300;28;20092;-67
2021/01/11 01:51:39;;;;;;;31.13;16.88;;;;;;;;;;6217655;28;20048;-67
2021/01/11 01:54:41;;;;;;;28.70;17.17;;;;;;;;;;6212386;28;20085;-71
2021/01/11 01:57:42;;;;;;;28.77;17.98;;;;;;;;;;6210969;28;20050;-69
2021/01/11 02:00:44;;;;;;;31.25;17.95;;;;;;;;;;6209435;28;20045;-69
2021/01/11 02:03:45;;;;;;;27.20;15.98;;;;;;;;;;6209265;28;20716;-67
2021/01/11 02:06:49;;;;;;;30.85;18.00;;;;;;;;;;6212166;28;20544;-68
2021/01/11 02:09:54;;;;;;;;;;;;;;;;;;6211010;28;20728;-68
2021/01/11 02:13:07;;;;;;;24.75;15.57;;;;;;;;;;6213703;28;19929;-69
2021/01/11 02:16:12;;;;;;;35.42;18.17;;;;;;;;;;6212053;28;20046;-68
2021/01/11 02:19:42;;;;;;;;;;;;;;;;;;6214708;28;20052;-68
2021/01/11 02:22:52;;;;;;;27.13;16.13;;;;;;;;;;6091233;29;19923;-69
2021/01/11 02:25:56;;;;;;;30.67;16.98;;;;;;;;;;6205974;28;20081;-67
2021/01/11 02:29:03;;;;;;;27.55;16.52;;;;;;;;;;6212174;28;20163;-67
2021/01/11 02:32:05;;;;;;;29.70;17.45;;;;;;;;;;6213844;28;20050;-69
2021/01/11 02:35:09;;;;;;;29.60;18.35;;;;;;;;;;6203279;28;20470;-69
2021/01/11 02:38:10;;;;;;;31.95;16.88;;;;;;;;;;6213939;28;20046;-68
2021/01/11 02:41:11;;;;;;;31.95;17.20;;;;;;;;;;6207968;28;20068;-68
2021/01/11 02:44:12;;;;;;;28.27;17.42;;;;;;;;;;6214203;28;20188;-68
2021/01/11 02:47:15;;;;;;;31.63;17.50;;;;;;;;;;6211983;28;20065;-67
2021/01/11 02:50:19;;;;;;;30.95;17.98;;;;;;;;;;6217614;28;20050;-68
2021/01/11 02:53:34;;;;;;;29.27;18.25;;;;;;;;;;6213098;28;20048;-69
2021/01/11 02:56:41;;;;;;;28.50;17.55;;;;;;;;;;6212084;28;20046;-70
2021/01/11 02:59:46;;;;;;;32.80;18.77;;;;;;;;;;6212801;28;20057;-68
2021/01/11 03:02:49;;;;;;;29.55;17.40;;;;;;;;;;6215923;28;20064;-69
2021/01/11 03:05:50;;;;;;;26.77;17.55;;;;;;;;;;6214933;28;20057;-69
2021/01/11 03:08:51;;;;;;;30.80;17.83;;;;;;;;;;6214064;28;20060;-67
2021/01/11 03:11:53;;;;;;;30.98;18.33;;;;;;;;;;6215376;28;20149;-69
2021/01/11 03:14:54;;;;;;;30.02;18.13;;;;;;;;;;6214639;28;20505;-69
2021/01/11 03:17:56;;;;;;;32.65;19.17;;;;;;;;;;6215640;28;20056;-68
2021/01/11 03:20:57;;;;;;;30.67;18.65;;;;;;;;;;6210787;28;20547;-67
2021/01/11 03:23:58;;;;;;;27.88;17.35;;;;;;;;;;6207130;28;20050;-71
2021/01/11 03:27:00;;;;;;;28.17;16.73;;;;;;;;;;6209677;28;20069;-68
2021/01/11 03:30:01;;;;;;;28.33;16.30;;;;;;;;;;6207065;28;20077;-68
2021/01/11 03:33:03;;;;;;;29.27;16.92;;;;;;;;;;6210159;28;20046;-68
2021/01/11 03:36:05;;;;;;;26.55;16.42;;;;;;;;;;6213196;28;20040;-67
2021/01/11 03:39:07;;;;;;;28.33;16.77;;;;;;;;;;6210529;28;20385;-68
2021/01/11 03:42:08;;;;;;;28.80;16.15;;;;;;;;;;6208349;28;20129;-69
2021/01/11 03:45:11;;;;;;;25.63;14.93;;;;;;;;;;6217004;28;20115;-68
2021/01/11 03:48:13;;;;;;;25.85;16.17;;;;;;;;;;6217508;28;20424;-69
2021/01/11 03:51:14;;;;;;;25.60;15.82;;;;;;;;;;6211002;28;20081;-68
2021/01/11 03:54:15;;;;;;;24.73;15.20;;;;;;;;;;6222201;28;20060;-68
2021/01/11 03:57:16;;;;;;;23.48;14.82;;;;;;;;;;6218718;28;20042;-67
2021/01/11 04:00:18;;;;;;;26.67;15.25;;;;;;;;;;6206146;28;20160;-67
2021/01/11 04:03:20;;;;;;;23.27;14.38;;;;;;;;;;6216513;28;20113;-69
2021/01/11 04:06:21;;;;;;;24.40;13.00;;;;;;;;;;6210772;28;20112;-68
2021/01/11 04:09:22;;;;;;;22.40;12.60;;;;;;;;;;6218499;28;20050;-69
2021/01/11 04:12:23;;;;;;;21.70;12.75;;;;;;;;;;6219131;28;20046;-67
2021/01/11 04:15:25;;;;;;;21.50;11.68;;;;;;;;;;6219134;28;20128;-70
2021/01/11 04:18:26;;;;;;;22.60;12.85;;;;;;;;;;6217559;28;20531;-68
2021/01/11 04:21:27;;;;;;;21.15;12.43;;;;;;;;;;6217690;28;20140;-69
2021/01/11 04:24:28;;;;;;;23.05;11.93;;;;;;;;;;6219898;28;20508;-70
2021/01/11 04:27:29;;;;;;;21.20;11.73;;;;;;;;;;6217156;28;20463;-68
2021/01/11 04:30:31;;;;;;;23.30;12.50;;;;;;;;;;6216497;28;20472;-67
2021/01/11 04:33:33;;;;;;;19.88;12.27;;;;;;;;;;6217956;28;20136;-70
2021/01/11 04:36:34;;;;;;;25.33;12.55;;;;;;;;;;6202416;28;20058;-69
2021/01/11 04:39:35;;;;;;;20.85;11.57;;;;;;;;;;6218764;28;20038;-70
2021/01/11 04:42:45;;;;;;;20.35;12.32;;;;;;;;;;6219082;28;20112;-70
2021/01/11 04:45:46;;;;;;;18.95;11.32;;;;;;;;;;6214391;28;20054;-70
2021/01/11 04:48:48;;;;;;;19.98;12.07;;;;;;;;;;6213651;28;20129;-69
2021/01/11 04:51:49;;;;;;;27.75;12.20;;;;;;;;;;6215102;28;20048;-72
2021/01/11 04:54:50;;;;;;;16.58;11.30;;;;;;;;;;6210347;28;20088;-71
2021/01/11 04:57:56;;;;;;;18.88;11.02;;;;;;;;;;6216406;28;20492;-71
2021/01/11 05:01:00;;;;;;;17.42;10.23;;;;;;;;;;6214876;28;20042;-69
2021/01/11 05:04:03;;;;;;;19.30;10.43;;;;;;;;;;6218391;28;20081;-70
2021/01/11 05:07:06;;;;;;;18.00;10.38;;;;;;;;;;6212993;28;20492;-69
2021/01/11 05:10:09;;;;;;;16.90;9.32;;;;;;;;;;6218220;28;20050;-71
2021/01/11 05:13:10;;;;;;;16.67;9.85;;;;;;;;;;6215815;28;20068;-71
2021/01/11 05:16:13;;;;;;;14.18;9.23;;;;;;;;;;6217870;28;20564;-69
2021/01/11 05:19:22;;;;;;;14.93;9.43;;;;;;;;;;6212449;28;20050;-69
2021/01/11 05:22:29;;;;;;;17.08;9.50;;;;;;;;;;6218208;28;20116;-69
2021/01/11 05:25:35;;;;;;;14.50;9.20;;;;;;;;;;6212512;28;20057;-69
2021/01/11 05:28:37;;;;;;;19.52;9.23;;;;;;;;;;6214064;28;20052;-69
2021/01/11 05:31:51;;;;;;;17.10;9.20;;;;;;;;;;6215019;28;20057;-70
2021/01/11 05:34:53;;;;;;;16.48;9.70;;;;;;;;;;6212960;28;20042;-70
2021/01/11 05:37:55;;;;;;;17.00;9.35;;;;;;;;;;6211532;28;20193;-70
2021/01/11 05:40:56;;;;;;;22.30;10.05;;;;;;;;;;6213781;28;20796;-70
2021/01/11 05:44:11;;;;;;;17.50;9.48;;;;;;;;;;6212214;28;20076;-69
2021/01/11 05:47:11;;;;;;;;;;;;;;;;;;6212291;28;20060;-69
2021/01/11 05:50:15;;;;;;;13.15;7.65;;;;;;;;;;6215813;28;19925;-69
2021/01/11 05:53:18;;;;;;;16.55;8.77;;;;;;;;;;6213324;28;20050;-69
2021/01/11 05:56:19;;;;;;;14.33;9.10;;;;;;;;;;6216621;28;20507;-69
2021/01/11 05:59:20;;;;;;;16.25;8.55;;;;;;;;;;6213723;28;20137;-71
2021/01/11 06:02:21;;;;;;;17.48;8.85;;;;;;;;;;6210741;28;20038;-72
2021/01/11 06:05:24;;;;;;;18.98;8.98;;;;;;;;;;6213499;28;20045;-70
2021/01/11 06:08:25;;;;;;;23.38;8.85;;;;;;;;;;6213126;28;20065;-70
2021/01/11 06:11:27;;;;;;;17.42;9.20;;;;;;;;;;6214008;28;20053;-71
2021/01/11 06:14:28;;;;;;;16.00;8.90;;;;;;;;;;6214906;28;20607;-72
2021/01/11 06:17:31;;;;;;;16.92;8.63;;;;;;;;;;6212228;28;20065;-71
2021/01/11 06:20:33;;;;;;;13.95;9.18;;;;;;;;;;6213500;28;20049;-72
2021/01/11 06:23:34;;;;;;;17.55;8.25;;;;;;;;;;6221315;28;20060;-70
2021/01/11 06:26:36;;;;;;;14.27;8.75;;;;;;;;;;6213619;28;20447;-70
2021/01/11 06:29:45;;;;;;;14.48;8.65;;;;;;;;;;6213418;28;20491;-68
2021/01/11 06:32:46;;;;;;;14.98;8.10;;;;;;;;;;6214264;28;20637;-68
2021/01/11 06:35:49;;;;;;;12.90;7.75;;;;;;;;;;6208851;28;20045;-69
2021/01/11 06:38:52;;;;;;;13.20;8.25;;;;;;;;;;6206474;28;20561;-69
2021/01/11 06:41:53;;;;;;;13.90;8.40;;;;;;;;;;6209414;28;20141;-70
2021/01/11 06:44:54;;;;;;;14.27;8.35;;;;;;;;;;6208163;28;20046;-68
2021/01/11 06:48:02;;;;;;;14.25;8.23;;;;;;;;;;6205623;28;20064;-69
2021/01/11 06:51:06;;;;;;;13.48;8.13;;;;;;;;;;6208921;28;20440;-74
2021/01/11 06:54:08;;;;;;;17.10;8.37;;;;;;;;;;6207824;28;20404;-70
2021/01/11 06:57:13;;;;;;;15.73;8.60;;;;;;;;;;6208862;28;20038;-70
2021/01/11 07:00:18;;;;;;;14.32;7.60;;;;;;;;;;6209408;28;20485;-70
2021/01/11 07:03:43;;;;;;;13.00;8.13;;;;;;;;;;6209785;28;20085;-68
2021/01/11 07:06:44;;;;;;;14.98;8.27;;;;;;;;;;6211095;28;20099;-70
2021/01/11 07:09:50;;;;;;;15.27;8.18;;;;;;;;;;6210907;28;20317;-69
2021/01/11 07:12:51;;;;;;;14.80;8.50;;;;;;;;;;6213242;28;20050;-70
2021/01/11 07:16:14;;;;;;;15.15;8.15;;;;;;;;;;6212430;28;20054;-69
2021/01/11 07:19:20;;;;;;;17.77;8.20;;;;;;;;;;6206093;28;20056;-69
2021/01/11 07:22:22;;;;;;;13.65;8.07;;;;;;;;;;6210858;28;20126;-70
2021/01/11 07:25:24;;;;;;;15.02;8.80;;;;;;;;;;6208306;28;20042;-71
2021/01/11 07:28:25;;;;;;;15.60;8.85;;;;;;;;;;6206280;28;20100;-71
2021/01/11 07:31:29;;;;;;;23.13;12.00;;;;;;;;;;6208371;28;20081;-71
2021/01/11 07:34:30;;;;;;;19.65;11.85;;;;;;;;;;6212017;28;20161;-72
2021/01/11 07:37:32;;;;;;;21.05;11.10;;;;;;;;;;6215274;28;20168;-71
2021/01/11 07:40:33;;;;;;;16.83;10.85;;;;;;;;;;6209939;28;20144;-71
2021/01/11 07:43:34;;;;;;;18.30;11.90;;;;;;;;;;6197541;28;20137;-71
2021/01/11 07:46:35;;;;;;;20.70;12.02;;;;;;;;;;6205979;28;20062;-70
2021/01/11 07:49:38;;;;;;;24.85;11.45;;;;;;;;;;6205129;28;20049;-71
2021/01/11 07:52:40;;;;;;;24.08;12.05;;;;;;;;;;6204657;28;20713;-70
2021/01/11 07:55:41;;;;;;;20.85;10.65;;;;;;;;;;6204230;28;20129;-71
2021/01/11 07:58:51;;;;;;;17.55;10.13;;;;;;;;;;6209029;28;20576;-70
2021/01/11 08:01:52;;;;;;;18.10;10.98;;;;;;;;;;6212950;28;20045;-69
2021/01/11 08:04:53;;;;;;;18.58;10.65;;;;;;;;;;6209696;28;20042;-69
2021/01/11 08:08:03;;;;;;;18.35;10.13;;;;;;;;;;6204617;28;20068;-69
2021/01/11 08:11:05;;;;;;;16.08;10.38;;;;;;;;;;6207679;28;20137;-70
2021/01/11 08:14:07;;;;;;;16.20;9.93;;;;;;;;;;6207957;28;20081;-69
2021/01/11 08:17:13;;;;;;;18.73;11.85;;;;;;;;;;6204346;28;20184;-70
2021/01/11 08:20:23;;;;;;;20.02;11.07;;;;;;;;;;6207636;28;20054;-70
2021/01/11 08:23:25;;;;;;;20.17;13.00;;;;;;;;;;6202244;28;20073;-70
2021/01/11 08:26:27;;;;;;;20.77;13.25;;;;;;;;;;6207516;28;20133;-69
2021/01/11 08:29:30;;;;;;;18.58;10.73;;;;;;;;;;6209283;28;20058;-69
2021/01/11 08:32:32;;;;;;;19.02;11.75;;;;;;;;;;6200328;28;20064;-71
2021/01/11 08:35:33;;;;;;;21.50;11.50;;;;;;;;;;6209880;28;20054;-68
2021/01/11 08:39:01;;;;;;;19.65;11.82;;;;;;;;;;6211994;28;20072;-68
2021/01/11 08:42:04;;;;;;;19.52;11.77;;;;;;;;;;6215441;28;20092;-67
2021/01/11 08:45:26;;;;;;;17.83;11.90;;;;;;;;;;6215965;28;20046;-70
2021/01/11 08:48:27;;;;;;;17.20;12.00;;;;;;;;;;6213938;28;20497;-69
2021/01/11 08:51:28;;;;;;;17.85;12.10;;;;;;;;;;6216921;28;20543;-69
2021/01/11 08:54:31;;;;;;;20.27;12.30;;;;;;;;;;6216352;28;20642;-69
2021/01/11 08:57:32;;;;;;;19.65;12.68;;;;;;;;;;6211588;28;20046;-69
2021/01/11 09:00:34;;;;;;;16.63;10.93;;;;;;;;;;6208266;28;20108;-71
2021/01/11 09:03:42;;;;;;;15.25;9.77;;;;;;;;;;6209130;28;20046;-71
2021/01/11 09:06:45;;;;;;;18.55;9.27;;;;;;;;;;6207838;28;20054;-69
2021/01/11 09:09:47;;;;;;;15.13;9.52;;;;;;;;;;6213576;28;20088;-71
2021/01/11 09:12:49;;;;;;;17.58;9.73;;;;;;;;;;6213339;28;20100;-69
2021/01/11 09:15:51;;;;;;;15.20;9.85;;;;;;;;;;6215144;28;20054;-69
2021/01/11 09:18:52;;;;;;;17.83;10.50;;;;;;;;;;6214528;28;20077;-69
2021/01/11 09:22:06;;;;;;;18.33;10.90;;;;;;;;;;6213507;28;20743;-69
2021/01/11 09:25:10;;;;;;;16.03;10.83;;;;;;;;;;6212589;28;21768;-69
2021/01/11 09:28:11;;;;;;;;;;;;;;;;;;6209941;28;20568;-69
2021/01/11 09:31:12;;;;;;;14.82;10.70;;;;;;;;;;6207641;28;19968;-69
2021/01/11 09:34:13;;;;;;;16.88;11.85;;;;;;;;;;6208927;28;20042;-69
2021/01/11 09:37:14;;;;;;;19.17;11.85;;;;;;;;;;6207749;28;20046;-69
2021/01/11 09:40:17;;;;;;;16.13;10.73;;;;;;;;;;6207123;28;20050;-70
2021/01/11 09:43:18;;;;;;;17.08;11.10;;;;;;;;;;6213657;28;20128;-69
2021/01/11 09:46:19;;;;;;;17.27;10.80;;;;;;;;;;6212092;28;20085;-70
2021/01/11 09:49:20;;;;;;;18.40;11.20;;;;;;;;;;6211293;28;21556;-69
2021/01/11 09:52:22;;;;;;;19.10;10.50;;;;;;;;;;6212743;28;20053;-69
2021/01/11 09:55:24;;;;;;;13.40;10.23;;;;;;;;;;6214470;28;20046;-69
2021/01/11 09:58:25;;;;;;;12.88;9.38;;;;;;;;;;6210792;28;20501;-69
2021/01/11 10:01:36;;;;;;;15.40;10.20;;;;;;;;;;6212207;28;20038;-69
2021/01/11 10:04:37;;;;;;;16.08;9.68;;;;;;;;;;6207195;28;20045;-71
2021/01/11 10:07:38;;;;;;;13.63;9.55;;;;;;;;;;6206547;28;20054;-69
2021/01/11 10:10:40;;;;;;;17.15;9.73;;;;;;;;;;6207703;28;20099;-69
2021/01/11 10:13:42;;;;;;;12.80;9.23;;;;;;;;;;6213291;28;20060;-70
2021/01/11 10:16:44;;;;;;;13.60;9.63;;;;;;;;;;6209881;28;20052;-69
2021/01/11 10:19:45;;;;;;;14.43;9.02;;;;;;;;;;6208075;28;20125;-72
2021/01/11 10:22:46;;;;;;;17.48;9.65;;;;;;;;;;6206208;28;20123;-69
2021/01/11 10:25:48;;;;;;;18.48;10.48;;;;;;;;;;6207026;28;20104;-70
2021/01/11 10:28:49;;;;;;;14.95;10.48;;;;;;;;;;6208808;28;20092;-71
2021/01/11 10:31:50;;;;;;;17.10;10.05;;;;;;;;;;6205584;28;20069;-70
2021/01/11 10:34:51;;;;;;;16.05;11.02;;;;;;;;;;6205872;28;20057;-72
2021/01/11 10:37:52;;;;;;;16.08;10.38;;;;;;;;;;6206976;28;20046;-69
2021/01/11 10:40:55;;;;;;;18.48;10.82;;;;;;;;;;6205299;28;20046;-71
2021/01/11 10:43:56;;;;;;;18.40;10.65;;;;;;;;;;6211641;28;20092;-70
2021/01/11 10:46:59;;;;;;;21.77;11.15;;;;;;;;;;6206449;28;20077;-71
2021/01/11 10:50:00;;;;;;;21.00;11.38;;;;;;;;;;6209095;28;20142;-70
2021/01/11 10:53:01;;;;;;;15.20;10.18;;;;;;;;;;6208233;28;20529;-69
2021/01/11 10:56:03;;;;;;;16.10;10.88;;;;;;;;;;6209545;28;20064;-69
2021/01/11 10:59:04;;;;;;;18.08;12.10;;;;;;;;;;6210442;28;20515;-69
2021/01/11 11:02:06;;;;;;;19.75;11.27;;;;;;;;;;6197814;28;20568;-69
2021/01/11 11:05:07;;;;;;;15.27;10.75;;;;;;;;;;6204057;28;20058;-69
2021/01/11 11:08:08;;;;;;;17.17;10.20;;;;;;;;;;6210275;28;20073;-69
2021/01/11 11:11:12;;;;;;;19.63;11.35;;;;;;;;;;6209773;28;20264;-70
2021/01/11 11:14:13;;;;;;;17.90;10.60;;;;;;;;;;6204251;28;20049;-69
2021/01/11 11:17:14;;;;;;;14.23;9.45;;;;;;;;;;6204811;28;21996;-69
2021/01/11 11:20:16;;;;;;;13.80;9.55;;;;;;;;;;6210165;28;20062;-69
2021/01/11 11:23:19;;;;;;;18.10;10.32;;;;;;;;;;6212979;28;20493;-72
2021/01/11 11:26:21;;;;;;;11.43;9.20;;;;;;;;;;6211751;28;20049;-71
2021/01/11 11:29:22;;;;;;;15.18;9.57;;;;;;;;;;6205222;28;20129;-72
2021/01/11 11:32:23;;;;;;;13.43;8.77;;;;;;;;;;6207005;28;20125;-71
2021/01/11 11:35:25;;;;;;;16.45;9.15;;;;;;;;;;6206837;28;20050;-70
2021/01/11 11:38:26;;;;;;;12.52;9.32;;;;;;;;;;6208145;28;20124;-70
2021/01/11 11:41:27;;;;;;;14.98;9.57;;;;;;;;;;6207730;28;20061;-67
2021/01/11 11:44:29;;;;;;;12.93;8.98;;;;;;;;;;6205013;28;20042;-70
2021/01/11 11:47:32;;;;;;;12.77;9.48;;;;;;;;;;6205828;28;20692;-69
2021/01/11 11:50:33;;;;;;;13.23;8.38;;;;;;;;;;6206305;28;20050;-70
2021/01/11 11:53:34;;;;;;;16.75;8.40;;;;;;;;;;6202502;28;20672;-70
2021/01/11 11:56:39;;;;;;;13.43;9.25;;;;;;;;;;6207262;28;20195;-70
2021/01/11 11:59:40;;;;;;;12.13;8.77;;;;;;;;;;6209344;28;20509;-70
2021/01/11 12:02:41;;;;;;;10.60;9.23;;;;;;;;;;6200271;28;20050;-72
2021/01/11 12:05:42;;;;;;;15.98;9.73;;;;;;;;;;6213672;28;20136;-68
2021/01/11 12:08:43;;;;;;;15.52;9.68;;;;;;;;;;6216635;28;20061;-67
2021/01/11 12:11:49;;;;;;;12.00;9.02;;;;;;;;;;6211690;28;20061;-69
2021/01/11 12:14:50;;;;;;;13.27;9.60;;;;;;;;;;6218378;28;20132;-69
2021/01/11 12:17:51;;;;;;;13.18;9.77;;;;;;;;;;6215176;28;20153;-69
2021/01/11 12:20:52;;;;;;;13.70;9.93;;;;;;;;;;6210512;28;20125;-69
2021/01/11 12:23:53;;;;;;;14.43;9.65;;;;;;;;;;6211018;28;20046;-71
2021/01/11 12:26:56;;;;;;;13.45;10.27;;;;;;;;;;5866266;28;9999792;-70
2021/01/11 12:29:57;;;;;;;;;;;;;;;;;;6216276;28;20042;-70
2021/01/11 12:32:58;;;;;;;15.00;9.80;;;;;;;;;;6216044;28;20371;-70
2021/01/11 12:35:59;;;;;;;15.05;9.57;;;;;;;;;;6214842;28;20068;-70
2021/01/11 12:39:01;;;;;;;12.55;9.57;;;;;;;;;;6212116;28;20167;-68
2021/01/11 12:42:05;;;;;;;11.70;9.63;;;;;;;;;;6214482;28;20400;-69
2021/01/11 12:45:06;;;;;;;;;;;;;;;;;;6209411;28;20133;-71
2021/01/11 12:48:08;;;;;;;13.65;10.18;;;;;;;;;;6216287;28;19925;-69
2021/01/11 12:51:12;;;;;;;15.15;10.20;;;;;;;;;;6209510;28;20045;-69
2021/01/11 12:54:14;;;;;;;18.15;10.18;;;;;;;;;;6212950;28;20057;-67
2021/01/11 12:57:15;;;;;;;16.02;10.73;;;;;;;;;;6211702;28;20045;-68
2021/01/11 13:00:17;;;;;;;12.48;9.65;;;;;;;;;;5517596;28;10000822;-68
2021/01/11 13:03:18;;;;;;;12.60;9.88;;;;;;;;;;6209727;28;20133;-69
2021/01/11 13:06:21;;;;;;;15.02;9.75;;;;;;;;;;6209556;28;20152;-67
2021/01/11 13:09:22;;;;;;;13.52;9.77;;;;;;;;;;6214325;28;20053;-68
2021/01/11 13:12:25;;;;;;;19.50;10.13;;;;;;;;;;6211667;28;20425;-69
2021/01/11 13:15:26;;;;;;;13.75;10.10;;;;;;;;;;6208315;28;20129;-70
2021/01/11 13:18:27;;;;;;;14.10;9.90;;;;;;;;;;6215333;28;20038;-68
2021/01/11 13:21:29;;;;;;;14.45;9.75;;;;;;;;;;6210803;28;20042;-70
2021/01/11 13:24:30;;;;;;;13.05;9.88;;;;;;;;;;6213022;28;20050;-69
2021/01/11 13:27:31;;;;;;;14.63;9.70;;;;;;;;;;6210459;28;20152;-70
2021/01/11 13:30:37;;;;;;;15.77;10.20;;;;;;;;;;6210305;28;20046;-70
2021/01/11 13:33:38;;;;;;;14.15;10.35;;;;;;;;;;6210741;28;20542;-69
2021/01/11 13:36:39;;;;;;;18.42;10.82;;;;;;;;;;6206517;28;20156;-71
2021/01/11 13:39:40;;;;;;;14.63;10.27;;;;;;;;;;6205015;28;20058;-69
2021/01/11 13:42:42;;;;;;;15.80;10.55;;;;;;;;;;6209307;28;20133;-67
2021/01/11 13:45:45;;;;;;;14.43;11.10;;;;;;;;;;6214637;28;20045;-68
2021/01/11 13:48:46;;;;;;;15.73;10.73;;;;;;;;;;6206908;28;20054;-71
2021/01/11 13:51:52;;;;;;;18.77;10.57;;;;;;;;;;6210450;28;20473;-70
2021/01/11 13:54:53;;;;;;;15.13;10.98;;;;;;;;;;5855439;28;10000214;-69
2021/01/11 13:57:55;;;;;;;17.48;10.90;;;;;;;;;;6211091;28;20564;-69
2021/01/11 14:00:56;;;;;;;14.27;10.23;;;;;;;;;;6210797;28;20370;-69
2021/01/11 14:03:57;;;;;;;14.15;10.50;;;;;;;;;;6215915;28;20133;-70
2021/01/11 14:06:58;;;;;;;14.18;10.15;;;;;;;;;;6213479;28;20050;-67
2021/01/11 14:10:00;;;;;;;16.92;10.98;;;;;;;;;;6211733;28;20046;-70
2021/01/11 14:13:02;;;;;;;17.35;11.50;;;;;;;;;;6213703;28;20060;-69
2021/01/11 14:16:03;;;;;;;18.52;11.25;;;;;;;;;;6211304;28;20165;-68
2021/01/11 14:19:04;;;;;;;20.58;12.20;;;;;;;;;;6209857;28;20056;-69
2021/01/11 14:22:05;;;;;;;19.20;12.23;;;;;;;;;;6206370;28;20056;-70
2021/01/11 14:25:07;;;;;;;16.90;11.82;;;;;;;;;;6206624;28;20046;-70
2021/01/11 14:28:09;;;;;;;15.68;11.63;;;;;;;;;;6208355;28;20042;-69
2021/01/11 14:31:10;;;;;;;22.23;12.23;;;;;;;;;;6205500;28;20061;-71
2021/01/11 14:34:11;;;;;;;18.67;12.65;;;;;;;;;;6207168;28;20173;-69
2021/01/11 14:37:12;;;;;;;20.75;11.95;;;;;;;;;;6205964;28;20468;-69
2021/01/11 14:40:14;;;;;;;15.30;11.55;;;;;;;;;;6204986;28;20072;-70
2021/01/11 14:43:16;;;;;;;15.60;11.82;;;;;;;;;;6207152;28;20045;-69
2021/01/11 14:46:18;;;;;;;18.27;12.63;;;;;;;;;;6210498;28;20172;-69
2021/01/11 14:49:19;;;;;;;18.77;12.85;;;;;;;;;;6208290;28;20057;-69
2021/01/11 14:52:20;;;;;;;17.40;13.52;;;;;;;;;;6208191;28;20129;-68
2021/01/11 14:55:21;;;;;;;21.02;13.90;;;;;;;;;;6202331;28;20049;-68
2021/01/11 14:58:23;;;;;;;21.13;13.88;;;;;;;;;;6209089;28;20053;-68
2021/01/11 15:01:26;;;;;;;19.95;14.68;;;;;;;;;;6204328;28;20124;-71
2021/01/11 15:04:27;;;;;;;21.15;14.18;;;;;;;;;;6202714;28;20041;-70
2021/01/11 15:07:28;;;;;;;24.52;14.93;;;;;;;;;;6207394;28;20050;-72
2021/01/11 15:10:29;;;;;;;20.13;14.40;;;;;;;;;;6207170;28;20815;-71
2021/01/11 15:13:31;;;;;;;21.80;14.35;;;;;;;;;;6205393;28;20108;-71
2021/01/11 15:16:32;;;;;;;20.73;14.23;;;;;;;;;;6205680;28;20136;-69
2021/01/11 15:19:33;;;;;;;22.65;14.88;;;;;;;;;;6206888;28;20058;-71
2021/01/11 15:22:34;;;;;;;21.02;15.48;;;;;;;;;;6204688;28;20180;-72
2021/01/11 15:25:36;;;;;;;24.08;14.57;;;;;;;;;;6206043;28;20065;-70
2021/01/11 15:28:39;;;;;;;22.13;13.82;;;;;;;;;;6209703;28;20101;-70
2021/01/11 15:31:40;;;;;;;18.52;14.05;;;;;;;;;;6206043;28;20056;-71
2021/01/11 15:34:41;;;;;;;18.65;13.10;;;;;;;;;;6205559;28;20050;-70
2021/01/11 15:37:42;;;;;;;20.90;13.02;;;;;;;;;;6210964;28;20461;-70
2021/01/11 15:40:43;;;;;;;19.33;12.27;;;;;;;;;;6202477;28;20140;-70
2021/01/11 15:43:45;;;;;;;18.77;12.55;;;;;;;;;;6190430;28;20133;-70
2021/01/11 15:46:46;;;;;;;19.25;12.40;;;;;;;;;;6208449;28;20616;-69
2021/01/11 15:49:47;;;;;;;18.40;12.40;;;;;;;;;;6212686;28;20161;-69
2021/01/11 15:52:49;;;;;;;18.48;11.57;;;;;;;;;;6212544;28;20080;-69
2021/01/11 15:55:50;;;;;;;17.45;12.15;;;;;;;;;;6213799;28;20081;-70
2021/01/11 15:58:53;;;;;;;20.75;12.38;;;;;;;;;;6214247;28;20049;-70
2021/01/11 16:01:54;;;;;;;18.52;11.20;;;;;;;;;;6181407;28;20420;-72
2021/01/11 16:04:55;;;;;;;20.98;11.55;;;;;;;;;;6207243;28;20081;-69
2021/01/11 16:07:56;;;;;;;15.73;10.88;;;;;;;;;;6210703;28;20562;-68
2021/01/11 16:10:57;;;;;;;17.55;11.35;;;;;;;;;;5863070;28;10000292;-68
2021/01/11 16:13:59;;;;;;;19.17;11.35;;;;;;;;;;6214571;28;20065;-69
2021/01/11 16:17:00;;;;;;;19.45;11.75;;;;;;;;;;6211195;28;20090;-69
2021/01/11 16:20:01;;;;;;;17.80;11.15;;;;;;;;;;6210271;28;20505;-72
2021/01/11 16:23:02;;;;;;;17.35;11.25;;;;;;;;;;6205405;28;20058;-71
2021/01/11 16:26:03;;;;;;;19.75;11.45;;;;;;;;;;6210779;28;20153;-69
2021/01/11 16:29:06;;;;;;;16.20;10.43;;;;;;;;;;6208164;28;20133;-69
2021/01/11 16:32:07;;;;;;;19.33;11.00;;;;;;;;;;6202463;28;20612;-72
2021/01/11 16:35:09;;;;;;;15.32;10.57;;;;;;;;;;6210762;28;20050;-70
2021/01/11 16:38:10;;;;;;;16.60;10.82;;;;;;;;;;6214085;28;20049;-69
2021/01/11 16:41:18;;;;;;;18.73;11.90;;;;;;;;;;6211836;28;20042;-72
2021/01/11 16:44:20;;;;;;;18.08;11.23;;;;;;;;;;6207817;28;20050;-70
2021/01/11 16:47:26;;;;;;;20.30;11.98;;;;;;;;;;6208212;28;20049;-71
2021/01/11 16:50:27;;;;;;;18.20;11.65;;;;;;;;;;6203615;28;20140;-73
2021/01/11 16:53:28;;;;;;;16.85;11.23;;;;;;;;;;6208015;28;20128;-70
2021/01/11 16:56:31;;;;;;;18.45;11.93;;;;;;;;;;6211804;28;20080;-71
2021/01/11 16:59:33;;;;;;;22.85;11.48;;;;;;;;;;6213904;28;20081;-69
2021/01/11 17:02:35;;;;;;;18.35;11.20;;;;;;;;;;6206197;28;20062;-69
2021/01/11 17:05:36;;;;;;;17.65;11.98;;;;;;;;;;6209885;28;20056;-70
2021/01/11 17:08:37;;;;;;;18.30;11.43;;;;;;;;;;6213573;28;20473;-69
2021/01/11 17:11:38;;;;;;;20.38;11.95;;;;;;;;;;6208771;28;20058;-70
2021/01/11 17:14:40;;;;;;;20.67;11.07;;;;;;;;;;6215041;28;20138;-69
2021/01/11 17:17:42;;;;;;;16.23;10.85;;;;;;;;;;6209349;28;20144;-69
2021/01/11 17:20:43;;;;;;;17.73;11.18;;;;;;;;;;6208837;28;20050;-72
2021/01/11 17:23:44;;;;;;;16.63;11.35;;;;;;;;;;6208492;28;20042;-71
2021/01/11 17:26:46;;;;;;;17.30;10.57;;;;;;;;;;6204814;28;20049;-71
2021/01/11 17:29:47;;;;;;;17.88;11.18;;;;;;;;;;6211664;28;20422;-70
2021/01/11 17:32:48;;;;;;;19.02;11.70;;;;;;;;;;6209835;28;20076;-71
2021/01/11 17:35:50;;;;;;;20.85;12.20;;;;;;;;;;6210930;28;20050;-70
2021/01/11 17:38:52;;;;;;;18.45;11.65;;;;;;;;;;5855299;28;10000816;-72
2021/01/11 17:41:53;;;;;;;20.23;11.85;;;;;;;;;;5516258;28;10000811;-72
2021/01/11 17:44:55;;;;;;;18.63;11.75;;;;;;;;;;6196006;28;20130;-71
2021/01/11 17:47:56;;;;;;;29.52;12.05;;;;;;;;;;6205920;28;20486;-70